sensor_id;sensor_type;location;lat;lon;timestamp;P1;durP1;ratioP1;P2;durP2;ratioP2
23642;SDS011;11998;55.788;37.572;2023-03-20T00:00:45;14.63;;;8.38;;
23642;SDS011;11998;55.788;37.572;2023-03-20T00:01:46;13.18;;;8.05;;
23642;SDS011;11998;55.788;37.572;2023-03-20T00:02:47;13.43;;;7.57;;
23642;SDS011;11998;55.788;37.572;2023-03-20T00:03:47;13.50;;;8.13;;
23642;SDS011;11998;55.788;37.572;2023-03-20T00:04:47;11.93;;;8.13;;
23642;SDS011;11998;55.788;37.572;2023-03-20T00:05:48;12.60;;;7.93;;
23642;SDS011;11998;55.788;37.572;2023-03-20T00:06:50;14.98;;;7.80;;
23642;SDS011;11998;55.788;37.572;2023-03-20T00:07:51;9.57;;;7.27;;
23642;SDS011;11998;55.788;37.572;2023-03-20T00:08:53;12.57;;;7.43;;
23642;SDS011;11998;55.788;37.572;2023-03-20T00:09:53;13.70;;;7.78;;
23642;SDS011;11998;55.788;37.572;2023-03-20T00:10:56;16.48;;;8.00;;
23642;SDS011;11998;55.788;37.572;2023-03-20T00:11:57;11.65;;;7.70;;
23642;SDS011;11998;55.788;37.572;2023-03-20T00:12:58;13.60;;;8.00;;
23642;SDS011;11998;55.788;37.572;2023-03-20T00:14:06;10.60;;;7.40;;
23642;SDS011;11998;55.788;37.572;2023-03-20T00:15:10;11.93;;;7.85;;
23642;SDS011;11998;55.788;37.572;2023-03-20T00:16:16;13.45;;;7.43;;
23642;SDS011;11998;55.788;37.572;2023-03-20T00:17:18;12.23;;;7.80;;
23642;SDS011;11998;55.788;37.572;2023-03-20T00:18:20;9.52;;;6.90;;
23642;SDS011;11998;55.788;37.572;2023-03-20T00:19:23;12.38;;;7.32;;
23642;SDS011;11998;55.788;37.572;2023-03-20T00:20:24;11.25;;;7.65;;
23642;SDS011;11998;55.788;37.572;2023-03-20T00:21:24;11.60;;;7.63;;
23642;SDS011;11998;55.788;37.572;2023-03-20T00:22:25;10.33;;;6.63;;
23642;SDS011;11998;55.788;37.572;2023-03-20T00:23:28;17.52;;;8.13;;
23642;SDS011;11998;55.788;37.572;2023-03-20T00:24:28;15.37;;;8.53;;
23642;SDS011;11998;55.788;37.572;2023-03-20T00:25:29;12.50;;;7.53;;
23642;SDS011;11998;55.788;37.572;2023-03-20T00:26:30;12.00;;;7.40;;
23642;SDS011;11998;55.788;37.572;2023-03-20T00:27:32;13.00;;;7.47;;
23642;SDS011;11998;55.788;37.572;2023-03-20T00:28:41;14.50;;;7.50;;
23642;SDS011;11998;55.788;37.572;2023-03-20T00:29:43;11.50;;;7.20;;
23642;SDS011;11998;55.788;37.572;2023-03-20T00:30:43;11.37;;;8.10;;
23642;SDS011;11998;55.788;37.572;2023-03-20T00:31:44;15.03;;;7.73;;
23642;SDS011;11998;55.788;37.572;2023-03-20T00:32:44;11.23;;;8.10;;
23642;SDS011;11998;55.788;37.572;2023-03-20T00:33:45;12.50;;;7.40;;
23642;SDS011;11998;55.788;37.572;2023-03-20T00:34:45;13.30;;;7.70;;
23642;SDS011;11998;55.788;37.572;2023-03-20T00:35:46;11.23;;;8.00;;
23642;SDS011;11998;55.788;37.572;2023-03-20T00:36:46;12.27;;;7.13;;
23642;SDS011;11998;55.788;37.572;2023-03-20T00:37:46;10.93;;;7.77;;
23642;SDS011;11998;55.788;37.572;2023-03-20T00:38:47;11.80;;;7.60;;
23642;SDS011;11998;55.788;37.572;2023-03-20T00:39:47;12.07;;;7.50;;
23642;SDS011;11998;55.788;37.572;2023-03-20T00:40:47;15.97;;;8.20;;
23642;SDS011;11998;55.788;37.572;2023-03-20T00:41:55;12.67;;;7.77;;
23642;SDS011;11998;55.788;37.572;2023-03-20T00:43:00;14.02;;;7.95;;
23642;SDS011;11998;55.788;37.572;2023-03-20T00:45:14;14.43;;;8.30;;
23642;SDS011;11998;55.788;37.572;2023-03-20T00:46:16;15.57;;;8.48;;
23642;SDS011;11998;55.788;37.572;2023-03-20T00:47:17;14.10;;;8.73;;
23642;SDS011;11998;55.788;37.572;2023-03-20T00:48:18;15.27;;;9.13;;
23642;SDS011;11998;55.788;37.572;2023-03-20T00:49:23;15.07;;;9.33;;
23642;SDS011;11998;55.788;37.572;2023-03-20T00:50:28;16.92;;;8.90;;
23642;SDS011;11998;55.788;37.572;2023-03-20T00:51:29;15.70;;;8.27;;
23642;SDS011;11998;55.788;37.572;2023-03-20T00:52:29;12.70;;;8.47;;
23642;SDS011;11998;55.788;37.572;2023-03-20T00:53:30;13.97;;;8.33;;
23642;SDS011;11998;55.788;37.572;2023-03-20T00:54:30;12.47;;;8.40;;
23642;SDS011;11998;55.788;37.572;2023-03-20T00:55:31;15.90;;;8.97;;
23642;SDS011;11998;55.788;37.572;2023-03-20T00:56:35;14.33;;;9.00;;
23642;SDS011;11998;55.788;37.572;2023-03-20T00:57:40;14.70;;;8.07;;
23642;SDS011;11998;55.788;37.572;2023-03-20T00:58:42;15.63;;;8.13;;
23642;SDS011;11998;55.788;37.572;2023-03-20T01:00:02;17.60;;;8.23;;
23642;SDS011;11998;55.788;37.572;2023-03-20T01:01:04;13.20;;;8.30;;
23642;SDS011;11998;55.788;37.572;2023-03-20T01:02:04;15.57;;;8.57;;
23642;SDS011;11998;55.788;37.572;2023-03-20T01:03:19;13.77;;;8.63;;
23642;SDS011;11998;55.788;37.572;2023-03-20T01:04:19;17.38;;;8.40;;
23642;SDS011;11998;55.788;37.572;2023-03-20T01:05:20;11.97;;;8.20;;
23642;SDS011;11998;55.788;37.572;2023-03-20T01:06:21;16.53;;;8.90;;
23642;SDS011;11998;55.788;37.572;2023-03-20T01:07:21;13.37;;;8.20;;
23642;SDS011;11998;55.788;37.572;2023-03-20T01:08:23;11.33;;;7.63;;
23642;SDS011;11998;55.788;37.572;2023-03-20T01:09:24;14.43;;;8.90;;
23642;SDS011;11998;55.788;37.572;2023-03-20T01:10:26;16.03;;;9.00;;
23642;SDS011;11998;55.788;37.572;2023-03-20T01:11:28;14.90;;;8.68;;
23642;SDS011;11998;55.788;37.572;2023-03-20T01:12:29;15.63;;;8.77;;
23642;SDS011;11998;55.788;37.572;2023-03-20T01:13:29;14.10;;;7.93;;
23642;SDS011;11998;55.788;37.572;2023-03-20T01:14:30;20.83;;;9.43;;
23642;SDS011;11998;55.788;37.572;2023-03-20T01:15:31;18.23;;;9.30;;
23642;SDS011;11998;55.788;37.572;2023-03-20T01:16:32;17.20;;;8.13;;
23642;SDS011;11998;55.788;37.572;2023-03-20T01:17:32;25.33;;;9.47;;
23642;SDS011;11998;55.788;37.572;2023-03-20T01:18:32;15.43;;;8.67;;
23642;SDS011;11998;55.788;37.572;2023-03-20T01:19:33;13.20;;;8.70;;
23642;SDS011;11998;55.788;37.572;2023-03-20T01:20:33;21.07;;;9.30;;
23642;SDS011;11998;55.788;37.572;2023-03-20T01:21:33;14.33;;;9.00;;
23642;SDS011;11998;55.788;37.572;2023-03-20T01:22:34;19.53;;;8.87;;
23642;SDS011;11998;55.788;37.572;2023-03-20T01:23:34;14.20;;;8.30;;
23642;SDS011;11998;55.788;37.572;2023-03-20T01:24:37;20.03;;;9.27;;
23642;SDS011;11998;55.788;37.572;2023-03-20T01:25:38;16.13;;;7.88;;
23642;SDS011;11998;55.788;37.572;2023-03-20T01:26:40;17.97;;;8.90;;
23642;SDS011;11998;55.788;37.572;2023-03-20T01:27:42;14.75;;;8.32;;
23642;SDS011;11998;55.788;37.572;2023-03-20T01:28:43;11.80;;;7.60;;
23642;SDS011;11998;55.788;37.572;2023-03-20T01:29:45;10.35;;;6.88;;
23642;SDS011;11998;55.788;37.572;2023-03-20T01:30:49;15.10;;;7.30;;
23642;SDS011;11998;55.788;37.572;2023-03-20T01:31:50;13.32;;;6.85;;
23642;SDS011;11998;55.788;37.572;2023-03-20T01:32:51;15.90;;;8.73;;
23642;SDS011;11998;55.788;37.572;2023-03-20T01:33:51;11.43;;;6.77;;
23642;SDS011;11998;55.788;37.572;2023-03-20T01:34:55;16.90;;;7.20;;
23642;SDS011;11998;55.788;37.572;2023-03-20T01:35:56;14.63;;;6.93;;
23642;SDS011;11998;55.788;37.572;2023-03-20T01:36:56;9.23;;;6.33;;
23642;SDS011;11998;55.788;37.572;2023-03-20T01:37:58;13.00;;;7.30;;
23642;SDS011;11998;55.788;37.572;2023-03-20T01:38:58;11.60;;;6.60;;
23642;SDS011;11998;55.788;37.572;2023-03-20T01:39:58;11.10;;;6.80;;
23642;SDS011;11998;55.788;37.572;2023-03-20T01:41:59;11.40;;;6.07;;
23642;SDS011;11998;55.788;37.572;2023-03-20T01:43:00;10.97;;;6.67;;
23642;SDS011;11998;55.788;37.572;2023-03-20T01:44:08;11.60;;;6.43;;
23642;SDS011;11998;55.788;37.572;2023-03-20T01:45:16;13.82;;;7.38;;
23642;SDS011;11998;55.788;37.572;2023-03-20T01:46:19;13.32;;;7.32;;
23642;SDS011;11998;55.788;37.572;2023-03-20T01:47:23;11.43;;;6.18;;
23642;SDS011;11998;55.788;37.572;2023-03-20T01:48:24;15.05;;;6.72;;
23642;SDS011;11998;55.788;37.572;2023-03-20T01:50:31;12.48;;;6.47;;
23642;SDS011;11998;55.788;37.572;2023-03-20T01:51:32;12.20;;;6.45;;
23642;SDS011;11998;55.788;37.572;2023-03-20T01:52:34;10.02;;;6.07;;
23642;SDS011;11998;55.788;37.572;2023-03-20T01:53:35;13.47;;;6.83;;
23642;SDS011;11998;55.788;37.572;2023-03-20T01:54:36;13.77;;;6.47;;
23642;SDS011;11998;55.788;37.572;2023-03-20T01:55:40;19.08;;;6.22;;
23642;SDS011;11998;55.788;37.572;2023-03-20T01:56:58;14.32;;;7.95;;
23642;SDS011;11998;55.788;37.572;2023-03-20T01:58:00;13.93;;;7.32;;
23642;SDS011;11998;55.788;37.572;2023-03-20T01:59:04;11.98;;;6.88;;
23642;SDS011;11998;55.788;37.572;2023-03-20T02:00:08;12.50;;;6.55;;
23642;SDS011;11998;55.788;37.572;2023-03-20T02:01:09;12.90;;;7.38;;
23642;SDS011;11998;55.788;37.572;2023-03-20T02:02:20;11.98;;;7.28;;
23642;SDS011;11998;55.788;37.572;2023-03-20T02:03:21;15.23;;;7.25;;
23642;SDS011;11998;55.788;37.572;2023-03-20T02:04:24;13.75;;;7.70;;
23642;SDS011;11998;55.788;37.572;2023-03-20T02:05:25;13.25;;;8.18;;
23642;SDS011;11998;55.788;37.572;2023-03-20T02:06:26;11.30;;;7.90;;
23642;SDS011;11998;55.788;37.572;2023-03-20T02:07:26;14.03;;;7.57;;
23642;SDS011;11998;55.788;37.572;2023-03-20T02:08:29;10.48;;;6.97;;
23642;SDS011;11998;55.788;37.572;2023-03-20T02:09:29;10.60;;;6.90;;
23642;SDS011;11998;55.788;37.572;2023-03-20T02:10:30;8.90;;;6.30;;
23642;SDS011;11998;55.788;37.572;2023-03-20T02:11:31;13.30;;;8.33;;
23642;SDS011;11998;55.788;37.572;2023-03-20T02:12:31;10.97;;;7.13;;
23642;SDS011;11998;55.788;37.572;2023-03-20T02:13:32;10.37;;;7.57;;
23642;SDS011;11998;55.788;37.572;2023-03-20T02:14:33;14.88;;;9.50;;
23642;SDS011;11998;55.788;37.572;2023-03-20T02:15:35;9.23;;;6.13;;
23642;SDS011;11998;55.788;37.572;2023-03-20T02:16:35;8.70;;;6.07;;
23642;SDS011;11998;55.788;37.572;2023-03-20T02:17:36;10.07;;;5.97;;
23642;SDS011;11998;55.788;37.572;2023-03-20T02:18:36;10.00;;;6.23;;
23642;SDS011;11998;55.788;37.572;2023-03-20T02:25:10;10.38;;;5.20;;
23642;SDS011;11998;55.788;37.572;2023-03-20T02:41:21;8.38;;;5.28;;
23642;SDS011;11998;55.788;37.572;2023-03-20T02:42:44;8.73;;;5.57;;
23642;SDS011;11998;55.788;37.572;2023-03-20T02:45:55;6.75;;;5.03;;
23642;SDS011;11998;55.788;37.572;2023-03-20T02:47:08;9.88;;;5.35;;
23642;SDS011;11998;55.788;37.572;2023-03-20T02:51:43;11.47;;;5.87;;
23642;SDS011;11998;55.788;37.572;2023-03-20T02:53:52;7.57;;;5.23;;
23642;SDS011;11998;55.788;37.572;2023-03-20T02:57:04;8.30;;;6.00;;
23642;SDS011;11998;55.788;37.572;2023-03-20T02:58:28;6.85;;;5.07;;
23642;SDS011;11998;55.788;37.572;2023-03-20T03:00:49;6.47;;;4.88;;
23642;SDS011;11998;55.788;37.572;2023-03-20T03:01:52;10.18;;;5.72;;
23642;SDS011;11998;55.788;37.572;2023-03-20T03:03:05;7.95;;;4.90;;
23642;SDS011;11998;55.788;37.572;2023-03-20T03:04:10;10.18;;;6.00;;
23642;SDS011;11998;55.788;37.572;2023-03-20T03:05:34;11.15;;;5.57;;
23642;SDS011;11998;55.788;37.572;2023-03-20T03:06:36;8.73;;;5.78;;
23642;SDS011;11998;55.788;37.572;2023-03-20T03:07:37;9.05;;;5.57;;
23642;SDS011;11998;55.788;37.572;2023-03-20T03:08:40;9.80;;;4.75;;
23642;SDS011;11998;55.788;37.572;2023-03-20T03:09:43;7.90;;;5.20;;
23642;SDS011;11998;55.788;37.572;2023-03-20T03:10:50;9.30;;;5.65;;
23642;SDS011;11998;55.788;37.572;2023-03-20T03:12:02;8.27;;;5.90;;
23642;SDS011;11998;55.788;37.572;2023-03-20T03:13:04;9.88;;;5.18;;
23642;SDS011;11998;55.788;37.572;2023-03-20T03:14:05;7.28;;;5.20;;
23642;SDS011;11998;55.788;37.572;2023-03-20T03:15:09;9.00;;;5.37;;
23642;SDS011;11998;55.788;37.572;2023-03-20T03:16:14;7.20;;;5.55;;
23642;SDS011;11998;55.788;37.572;2023-03-20T03:17:18;8.32;;;5.45;;
23642;SDS011;11998;55.788;37.572;2023-03-20T03:18:22;7.22;;;5.38;;
23642;SDS011;11998;55.788;37.572;2023-03-20T03:19:24;12.73;;;5.18;;
23642;SDS011;11998;55.788;37.572;2023-03-20T03:20:28;9.23;;;5.57;;
23642;SDS011;11998;55.788;37.572;2023-03-20T03:21:30;10.25;;;4.93;;
23642;SDS011;11998;55.788;37.572;2023-03-20T03:22:31;7.88;;;5.05;;
23642;SDS011;11998;55.788;37.572;2023-03-20T03:23:35;5.50;;;4.25;;
23642;SDS011;11998;55.788;37.572;2023-03-20T03:24:42;7.93;;;4.90;;
23642;SDS011;11998;55.788;37.572;2023-03-20T03:25:43;10.73;;;5.13;;
23642;SDS011;11998;55.788;37.572;2023-03-20T03:26:44;8.87;;;4.80;;
23642;SDS011;11998;55.788;37.572;2023-03-20T03:27:46;12.70;;;5.17;;
23642;SDS011;11998;55.788;37.572;2023-03-20T03:28:49;6.60;;;4.72;;
23642;SDS011;11998;55.788;37.572;2023-03-20T03:29:55;8.57;;;5.68;;
23642;SDS011;11998;55.788;37.572;2023-03-20T03:30:56;9.75;;;5.20;;
23642;SDS011;11998;55.788;37.572;2023-03-20T03:31:58;7.82;;;4.72;;
23642;SDS011;11998;55.788;37.572;2023-03-20T03:34:16;7.95;;;4.65;;
23642;SDS011;11998;55.788;37.572;2023-03-20T03:35:18;7.20;;;4.95;;
23642;SDS011;11998;55.788;37.572;2023-03-20T03:37:28;8.07;;;4.35;;
23642;SDS011;11998;55.788;37.572;2023-03-20T03:39:44;10.48;;;6.25;;
23642;SDS011;11998;55.788;37.572;2023-03-20T03:41:49;9.50;;;4.70;;
23642;SDS011;11998;55.788;37.572;2023-03-20T03:43:00;10.07;;;4.90;;
23642;SDS011;11998;55.788;37.572;2023-03-20T03:46:11;8.18;;;4.43;;
23642;SDS011;11998;55.788;37.572;2023-03-20T03:47:20;7.25;;;4.95;;
23642;SDS011;11998;55.788;37.572;2023-03-20T03:48:23;8.07;;;3.67;;
23642;SDS011;11998;55.788;37.572;2023-03-20T03:49:29;10.18;;;4.30;;
23642;SDS011;11998;55.788;37.572;2023-03-20T03:50:34;10.13;;;4.60;;
23642;SDS011;11998;55.788;37.572;2023-03-20T03:51:37;9.20;;;4.63;;
23642;SDS011;11998;55.788;37.572;2023-03-20T03:52:42;8.45;;;4.63;;
23642;SDS011;11998;55.788;37.572;2023-03-20T03:53:45;6.47;;;4.57;;
23642;SDS011;11998;55.788;37.572;2023-03-20T03:54:52;7.78;;;4.38;;
23642;SDS011;11998;55.788;37.572;2023-03-20T03:55:55;8.57;;;4.85;;
23642;SDS011;11998;55.788;37.572;2023-03-20T03:56:57;6.50;;;4.60;;
23642;SDS011;11998;55.788;37.572;2023-03-20T03:57:59;8.55;;;4.68;;
23642;SDS011;11998;55.788;37.572;2023-03-20T03:59:05;7.72;;;4.28;;
23642;SDS011;11998;55.788;37.572;2023-03-20T04:00:08;11.43;;;4.95;;
23642;SDS011;11998;55.788;37.572;2023-03-20T04:01:11;8.38;;;4.88;;
23642;SDS011;11998;55.788;37.572;2023-03-20T04:02:12;7.85;;;4.75;;
23642;SDS011;11998;55.788;37.572;2023-03-20T04:03:12;7.50;;;4.30;;
23642;SDS011;11998;55.788;37.572;2023-03-20T04:04:14;7.85;;;4.13;;
23642;SDS011;11998;55.788;37.572;2023-03-20T04:05:15;9.20;;;4.43;;
23642;SDS011;11998;55.788;37.572;2023-03-20T04:06:17;9.73;;;4.80;;
23642;SDS011;11998;55.788;37.572;2023-03-20T04:07:18;6.88;;;4.85;;
23642;SDS011;11998;55.788;37.572;2023-03-20T04:08:18;7.13;;;4.63;;
23642;SDS011;11998;55.788;37.572;2023-03-20T04:09:20;7.17;;;4.70;;
23642;SDS011;11998;55.788;37.572;2023-03-20T04:10:20;6.20;;;4.07;;
23642;SDS011;11998;55.788;37.572;2023-03-20T04:11:21;5.83;;;4.17;;
23642;SDS011;11998;55.788;37.572;2023-03-20T04:13:29;8.45;;;4.90;;
23642;SDS011;11998;55.788;37.572;2023-03-20T04:14:32;14.17;;;4.87;;
23642;SDS011;11998;55.788;37.572;2023-03-20T04:15:33;6.87;;;4.10;;
23642;SDS011;11998;55.788;37.572;2023-03-20T04:16:33;14.97;;;4.73;;
23642;SDS011;11998;55.788;37.572;2023-03-20T04:17:33;8.83;;;4.70;;
23642;SDS011;11998;55.788;37.572;2023-03-20T04:18:34;6.37;;;4.20;;
23642;SDS011;11998;55.788;37.572;2023-03-20T04:19:34;8.93;;;4.70;;
23642;SDS011;11998;55.788;37.572;2023-03-20T04:20:35;9.37;;;4.50;;
23642;SDS011;11998;55.788;37.572;2023-03-20T04:21:35;7.70;;;4.57;;
23642;SDS011;11998;55.788;37.572;2023-03-20T04:22:36;6.83;;;4.57;;
23642;SDS011;11998;55.788;37.572;2023-03-20T04:23:36;11.10;;;4.70;;
23642;SDS011;11998;55.788;37.572;2023-03-20T04:24:36;7.20;;;4.87;;
23642;SDS011;11998;55.788;37.572;2023-03-20T04:25:37;9.00;;;5.03;;
23642;SDS011;11998;55.788;37.572;2023-03-20T04:26:37;11.37;;;4.17;;
23642;SDS011;11998;55.788;37.572;2023-03-20T04:27:39;7.82;;;4.28;;
23642;SDS011;11998;55.788;37.572;2023-03-20T04:28:39;6.30;;;4.27;;
23642;SDS011;11998;55.788;37.572;2023-03-20T04:29:40;10.30;;;4.90;;
23642;SDS011;11998;55.788;37.572;2023-03-20T04:30:43;7.40;;;3.97;;
23642;SDS011;11998;55.788;37.572;2023-03-20T04:31:47;7.80;;;4.30;;
23642;SDS011;11998;55.788;37.572;2023-03-20T04:32:47;7.00;;;4.00;;
23642;SDS011;11998;55.788;37.572;2023-03-20T04:33:48;7.20;;;4.10;;
23642;SDS011;11998;55.788;37.572;2023-03-20T04:34:48;5.30;;;3.77;;
23642;SDS011;11998;55.788;37.572;2023-03-20T04:35:49;7.57;;;4.60;;
23642;SDS011;11998;55.788;37.572;2023-03-20T04:36:50;6.35;;;4.15;;
23642;SDS011;11998;55.788;37.572;2023-03-20T04:37:50;7.60;;;3.67;;
23642;SDS011;11998;55.788;37.572;2023-03-20T04:38:50;8.30;;;4.30;;
23642;SDS011;11998;55.788;37.572;2023-03-20T04:39:51;9.87;;;4.77;;
23642;SDS011;11998;55.788;37.572;2023-03-20T04:40:52;9.38;;;4.63;;
23642;SDS011;11998;55.788;37.572;2023-03-20T04:41:52;7.63;;;5.10;;
23642;SDS011;11998;55.788;37.572;2023-03-20T04:42:53;11.27;;;5.13;;
23642;SDS011;11998;55.788;37.572;2023-03-20T04:43:53;8.73;;;4.87;;
23642;SDS011;11998;55.788;37.572;2023-03-20T04:44:54;10.03;;;5.90;;
23642;SDS011;11998;55.788;37.572;2023-03-20T04:45:54;8.63;;;4.57;;
23642;SDS011;11998;55.788;37.572;2023-03-20T04:46:55;8.73;;;4.83;;
23642;SDS011;11998;55.788;37.572;2023-03-20T04:47:55;10.70;;;5.57;;
23642;SDS011;11998;55.788;37.572;2023-03-20T04:48:55;14.70;;;4.83;;
23642;SDS011;11998;55.788;37.572;2023-03-20T04:49:56;9.90;;;4.50;;
23642;SDS011;11998;55.788;37.572;2023-03-20T04:50:56;9.37;;;5.37;;
23642;SDS011;11998;55.788;37.572;2023-03-20T04:51:57;10.17;;;4.20;;
23642;SDS011;11998;55.788;37.572;2023-03-20T04:52:57;12.87;;;5.37;;
23642;SDS011;11998;55.788;37.572;2023-03-20T04:53:57;14.13;;;6.53;;
23642;SDS011;11998;55.788;37.572;2023-03-20T04:54:58;12.07;;;6.17;;
23642;SDS011;11998;55.788;37.572;2023-03-20T04:55:58;8.47;;;5.27;;
23642;SDS011;11998;55.788;37.572;2023-03-20T04:56:59;10.80;;;6.57;;
23642;SDS011;11998;55.788;37.572;2023-03-20T04:57:59;10.67;;;6.27;;
23642;SDS011;11998;55.788;37.572;2023-03-20T04:59:00;10.07;;;5.73;;
23642;SDS011;11998;55.788;37.572;2023-03-20T05:00:00;9.03;;;5.50;;
23642;SDS011;11998;55.788;37.572;2023-03-20T05:01:00;8.67;;;6.00;;
23642;SDS011;11998;55.788;37.572;2023-03-20T05:02:03;12.13;;;5.50;;
23642;SDS011;11998;55.788;37.572;2023-03-20T05:03:04;9.87;;;5.73;;
23642;SDS011;11998;55.788;37.572;2023-03-20T05:04:04;17.40;;;6.77;;
23642;SDS011;11998;55.788;37.572;2023-03-20T05:05:05;11.17;;;6.00;;
23642;SDS011;11998;55.788;37.572;2023-03-20T05:06:05;11.53;;;5.30;;
23642;SDS011;11998;55.788;37.572;2023-03-20T05:07:06;19.77;;;5.77;;
23642;SDS011;11998;55.788;37.572;2023-03-20T05:08:06;14.67;;;5.73;;
23642;SDS011;11998;55.788;37.572;2023-03-20T05:09:07;15.87;;;6.13;;
23642;SDS011;11998;55.788;37.572;2023-03-20T05:10:07;11.43;;;6.00;;
23642;SDS011;11998;55.788;37.572;2023-03-20T05:11:08;12.27;;;6.03;;
23642;SDS011;11998;55.788;37.572;2023-03-20T05:12:09;15.73;;;5.83;;
23642;SDS011;11998;55.788;37.572;2023-03-20T05:13:09;9.20;;;5.20;;
23642;SDS011;11998;55.788;37.572;2023-03-20T05:14:10;10.97;;;5.20;;
23642;SDS011;11998;55.788;37.572;2023-03-20T05:15:14;18.93;;;6.07;;
23642;SDS011;11998;55.788;37.572;2023-03-20T05:16:14;7.43;;;4.93;;
23642;SDS011;11998;55.788;37.572;2023-03-20T05:17:15;13.50;;;5.53;;
23642;SDS011;11998;55.788;37.572;2023-03-20T05:18:17;11.57;;;5.53;;
23642;SDS011;11998;55.788;37.572;2023-03-20T05:19:17;20.13;;;5.57;;
23642;SDS011;11998;55.788;37.572;2023-03-20T05:20:18;12.87;;;6.37;;
23642;SDS011;11998;55.788;37.572;2023-03-20T05:21:18;11.03;;;5.13;;
23642;SDS011;11998;55.788;37.572;2023-03-20T05:22:19;15.87;;;5.63;;
23642;SDS011;11998;55.788;37.572;2023-03-20T05:23:19;13.90;;;5.50;;
23642;SDS011;11998;55.788;37.572;2023-03-20T05:24:20;10.30;;;5.17;;
23642;SDS011;11998;55.788;37.572;2023-03-20T05:25:20;10.60;;;5.80;;
23642;SDS011;11998;55.788;37.572;2023-03-20T05:26:20;14.53;;;5.93;;
23642;SDS011;11998;55.788;37.572;2023-03-20T05:27:21;11.87;;;5.50;;
23642;SDS011;11998;55.788;37.572;2023-03-20T05:28:21;7.60;;;4.80;;
23642;SDS011;11998;55.788;37.572;2023-03-20T05:29:22;12.37;;;5.13;;
23642;SDS011;11998;55.788;37.572;2023-03-20T05:30:22;16.37;;;7.47;;
23642;SDS011;11998;55.788;37.572;2023-03-20T05:31:23;9.53;;;5.03;;
23642;SDS011;11998;55.788;37.572;2023-03-20T05:32:23;10.40;;;5.50;;
23642;SDS011;11998;55.788;37.572;2023-03-20T05:33:23;10.27;;;4.43;;
23642;SDS011;11998;55.788;37.572;2023-03-20T05:34:24;10.20;;;4.77;;
23642;SDS011;11998;55.788;37.572;2023-03-20T05:35:25;9.10;;;5.13;;
23642;SDS011;11998;55.788;37.572;2023-03-20T05:36:25;12.67;;;5.10;;
23642;SDS011;11998;55.788;37.572;2023-03-20T05:37:26;15.20;;;5.20;;
23642;SDS011;11998;55.788;37.572;2023-03-20T05:38:29;9.00;;;5.03;;
23642;SDS011;11998;55.788;37.572;2023-03-20T05:39:29;11.60;;;5.03;;
23642;SDS011;11998;55.788;37.572;2023-03-20T05:40:30;6.40;;;4.70;;
23642;SDS011;11998;55.788;37.572;2023-03-20T05:41:30;10.23;;;4.83;;
23642;SDS011;11998;55.788;37.572;2023-03-20T05:42:30;10.50;;;4.50;;
23642;SDS011;11998;55.788;37.572;2023-03-20T05:43:31;14.43;;;5.13;;
23642;SDS011;11998;55.788;37.572;2023-03-20T05:44:31;11.77;;;4.63;;
23642;SDS011;11998;55.788;37.572;2023-03-20T05:45:32;8.37;;;4.67;;
23642;SDS011;11998;55.788;37.572;2023-03-20T05:46:32;7.60;;;4.47;;
23642;SDS011;11998;55.788;37.572;2023-03-20T05:47:32;11.30;;;5.03;;
23642;SDS011;11998;55.788;37.572;2023-03-20T05:48:33;9.10;;;4.70;;
23642;SDS011;11998;55.788;37.572;2023-03-20T05:49:33;9.90;;;4.73;;
23642;SDS011;11998;55.788;37.572;2023-03-20T05:50:34;9.63;;;4.70;;
23642;SDS011;11998;55.788;37.572;2023-03-20T05:51:34;7.40;;;4.23;;
23642;SDS011;11998;55.788;37.572;2023-03-20T05:52:34;9.03;;;5.23;;
23642;SDS011;11998;55.788;37.572;2023-03-20T05:53:35;10.27;;;4.80;;
23642;SDS011;11998;55.788;37.572;2023-03-20T05:54:35;12.87;;;4.80;;
23642;SDS011;11998;55.788;37.572;2023-03-20T05:55:36;6.07;;;4.40;;
23642;SDS011;11998;55.788;37.572;2023-03-20T05:56:36;8.05;;;4.50;;
23642;SDS011;11998;55.788;37.572;2023-03-20T05:57:36;13.53;;;4.83;;
23642;SDS011;11998;55.788;37.572;2023-03-20T05:58:37;9.50;;;4.30;;
23642;SDS011;11998;55.788;37.572;2023-03-20T05:59:37;14.53;;;4.67;;
23642;SDS011;11998;55.788;37.572;2023-03-20T06:00:38;7.03;;;4.40;;
23642;SDS011;11998;55.788;37.572;2023-03-20T06:01:38;7.90;;;4.47;;
23642;SDS011;11998;55.788;37.572;2023-03-20T06:02:39;8.13;;;4.10;;
23642;SDS011;11998;55.788;37.572;2023-03-20T06:03:39;12.13;;;5.07;;
23642;SDS011;11998;55.788;37.572;2023-03-20T06:04:39;6.13;;;4.40;;
23642;SDS011;11998;55.788;37.572;2023-03-20T06:05:40;10.83;;;5.10;;
23642;SDS011;11998;55.788;37.572;2023-03-20T06:06:41;9.50;;;4.70;;
23642;SDS011;11998;55.788;37.572;2023-03-20T06:07:42;10.97;;;4.20;;
23642;SDS011;11998;55.788;37.572;2023-03-20T06:08:42;7.47;;;4.13;;
23642;SDS011;11998;55.788;37.572;2023-03-20T06:09:42;9.73;;;4.20;;
23642;SDS011;11998;55.788;37.572;2023-03-20T06:10:43;9.13;;;5.03;;
23642;SDS011;11998;55.788;37.572;2023-03-20T06:11:44;12.67;;;4.50;;
23642;SDS011;11998;55.788;37.572;2023-03-20T06:12:44;10.03;;;4.40;;
23642;SDS011;11998;55.788;37.572;2023-03-20T06:13:44;9.17;;;3.93;;
23642;SDS011;11998;55.788;37.572;2023-03-20T06:14:45;9.90;;;4.50;;
23642;SDS011;11998;55.788;37.572;2023-03-20T06:15:45;10.13;;;4.80;;
23642;SDS011;11998;55.788;37.572;2023-03-20T06:16:46;9.57;;;4.73;;
23642;SDS011;11998;55.788;37.572;2023-03-20T06:17:46;7.93;;;3.60;;
23642;SDS011;11998;55.788;37.572;2023-03-20T06:18:46;7.37;;;4.17;;
23642;SDS011;11998;55.788;37.572;2023-03-20T06:19:51;7.03;;;4.50;;
23642;SDS011;11998;55.788;37.572;2023-03-20T06:20:52;8.17;;;4.23;;
23642;SDS011;11998;55.788;37.572;2023-03-20T06:21:52;6.53;;;4.13;;
23642;SDS011;11998;55.788;37.572;2023-03-20T06:22:53;8.73;;;4.60;;
23642;SDS011;11998;55.788;37.572;2023-03-20T06:23:53;8.13;;;4.00;;
23642;SDS011;11998;55.788;37.572;2023-03-20T06:24:54;7.33;;;4.50;;
23642;SDS011;11998;55.788;37.572;2023-03-20T06:25:56;7.57;;;4.50;;
23642;SDS011;11998;55.788;37.572;2023-03-20T06:26:56;10.90;;;4.97;;
23642;SDS011;11998;55.788;37.572;2023-03-20T06:27:57;8.50;;;4.70;;
23642;SDS011;11998;55.788;37.572;2023-03-20T06:28:58;13.17;;;4.37;;
23642;SDS011;11998;55.788;37.572;2023-03-20T06:29:58;6.17;;;4.30;;
23642;SDS011;11998;55.788;37.572;2023-03-20T06:30:59;9.23;;;4.70;;
23642;SDS011;11998;55.788;37.572;2023-03-20T06:31:59;11.53;;;4.93;;
23642;SDS011;11998;55.788;37.572;2023-03-20T06:33:00;14.23;;;4.80;;
23642;SDS011;11998;55.788;37.572;2023-03-20T06:34:00;9.73;;;4.25;;
23642;SDS011;11998;55.788;37.572;2023-03-20T06:35:01;12.40;;;4.77;;
23642;SDS011;11998;55.788;37.572;2023-03-20T06:36:02;38.25;;;25.52;;
23642;SDS011;11998;55.788;37.572;2023-03-20T06:37:02;61.33;;;41.28;;
23642;SDS011;11998;55.788;37.572;2023-03-20T06:38:03;110.00;;;69.85;;
23642;SDS011;11998;55.788;37.572;2023-03-20T06:39:03;25.10;;;16.00;;
23642;SDS011;11998;55.788;37.572;2023-03-20T06:40:03;72.50;;;42.10;;
23642;SDS011;11998;55.788;37.572;2023-03-20T06:41:04;34.45;;;21.77;;
23642;SDS011;11998;55.788;37.572;2023-03-20T06:42:05;22.17;;;9.37;;
23642;SDS011;11998;55.788;37.572;2023-03-20T06:43:06;9.57;;;4.93;;
23642;SDS011;11998;55.788;37.572;2023-03-20T06:44:06;8.23;;;4.82;;
23642;SDS011;11998;55.788;37.572;2023-03-20T06:45:07;10.77;;;4.60;;
23642;SDS011;11998;55.788;37.572;2023-03-20T06:46:07;14.93;;;4.20;;